createdAt,value
2019-04-27T00:00:46.514Z,11.00
2019-04-27T00:03:20.429Z,10.98
2019-04-27T00:05:57.371Z,10.82
2019-04-27T00:08:38.853Z,10.56
2019-04-27T00:11:10.101Z,10.41
2019-04-27T00:13:40.655Z,10.32
2019-04-27T00:16:11.052Z,10.37
2019-04-27T00:19:00.288Z,10.35
2019-04-27T00:21:34.034Z,10.38
2019-04-27T00:24:03.574Z,10.39
2019-04-27T00:26:33.424Z,10.27
2019-04-27T00:29:03.845Z,10.13
2019-04-27T00:31:33.793Z,10.03
2019-04-27T00:34:03.691Z,9.87
2019-04-27T00:36:46.922Z,9.77
2019-04-27T00:39:16.233Z,9.81
2019-04-27T00:41:45.888Z,9.76
2019-04-27T00:44:15.391Z,9.71
2019-04-27T00:46:44.901Z,9.81
2019-04-27T00:49:14.447Z,9.87
2019-04-27T00:51:43.943Z,9.93
2019-04-27T00:54:13.648Z,9.91
2019-04-27T00:56:50.346Z,9.84
2019-04-27T00:59:37.872Z,9.84
2019-04-27T01:02:09.125Z,9.82
2019-04-27T01:04:38.629Z,9.72
2019-04-27T01:07:08.875Z,9.71
2019-04-27T01:09:38.341Z,9.76
2019-04-27T01:12:08.655Z,9.65
2019-04-27T01:14:38.137Z,9.64
2019-04-27T01:17:08.879Z,9.65
2019-04-27T01:19:39.233Z,10.07
2019-04-27T01:22:09.202Z,10.54
2019-04-27T01:24:39.177Z,10.81
2019-04-27T01:27:13.093Z,10.95
2019-04-27T01:29:43.003Z,11.02
2019-04-27T01:32:14.227Z,11.04
2019-04-27T01:34:43.780Z,11.07
2019-04-27T01:37:13.264Z,10.92
2019-04-27T01:39:42.762Z,10.69
2019-04-27T01:42:12.314Z,10.45
2019-04-27T01:44:41.888Z,10.38
2019-04-27T01:47:11.413Z,10.46
2019-04-27T01:49:40.964Z,10.42
2019-04-27T01:52:10.441Z,10.33
2019-04-27T01:54:41.132Z,10.16
2019-04-27T01:57:10.704Z,10.14
2019-04-27T01:59:40.288Z,10.19
2019-04-27T02:02:23.442Z,10.23
2019-04-27T02:05:10.512Z,10.09
2019-04-27T02:07:41.063Z,10.10
2019-04-27T02:10:12.177Z,10.01
2019-04-27T02:12:43.836Z,10.04
2019-04-27T02:15:13.220Z,9.95
2019-04-27T02:17:42.699Z,10.07
2019-04-27T02:20:12.433Z,10.18
2019-04-27T02:22:41.946Z,10.37
2019-04-27T02:25:11.744Z,10.66
2019-04-27T02:27:42.940Z,10.72
2019-04-27T02:30:20.715Z,10.89
2019-04-27T02:33:12.312Z,10.89
2019-04-27T02:35:39.134Z,11.02
2019-04-27T02:38:10.237Z,11.06
2019-04-27T02:40:52.369Z,11.05
2019-04-27T02:43:23.603Z,10.98
2019-04-27T02:45:53.233Z,11.02
2019-04-27T02:48:22.804Z,11.10
2019-04-27T02:50:53.939Z,11.04
2019-04-27T02:53:29.558Z,11.01
2019-04-27T02:55:59.642Z,11.05
2019-04-27T02:58:31.590Z,11.02
2019-04-27T03:01:00.359Z,10.94
2019-04-27T03:03:30.182Z,11.02
2019-04-27T03:05:59.876Z,11.19
2019-04-27T03:08:29.639Z,11.15
2019-04-27T03:11:01.179Z,11.11
2019-04-27T03:13:32.016Z,11.09
2019-04-27T03:16:20.493Z,11.05
2019-04-27T03:18:51.701Z,11.01
2019-04-27T03:21:22.823Z,11.25
2019-04-27T03:23:52.464Z,11.10
2019-04-27T03:26:21.871Z,11.06
2019-04-27T03:28:52.579Z,11.05
2019-04-27T03:31:22.165Z,10.98
2019-04-27T03:33:58.662Z,10.99
2019-04-27T03:36:23.010Z,11.14
2019-04-27T03:38:52.634Z,11.25
2019-04-27T03:41:22.110Z,11.07
2019-04-27T03:43:51.679Z,10.92
2019-04-27T03:46:21.306Z,10.92
2019-04-27T03:48:50.940Z,10.97
2019-04-27T03:51:22.153Z,10.98
2019-04-27T03:53:56.997Z,11.15
2019-04-27T03:56:26.273Z,11.03
2019-04-27T03:58:59.680Z,10.92
2019-04-27T04:01:30.213Z,10.84
2019-04-27T04:04:00.021Z,10.90
2019-04-27T04:06:31.527Z,10.98
2019-04-27T04:09:01.060Z,10.98
2019-04-27T04:11:39.537Z,10.87
2019-04-27T04:14:13.591Z,10.81
2019-04-27T04:16:50.589Z,10.82
2019-04-27T04:19:20.259Z,10.83
2019-04-27T04:21:50.479Z,10.85
2019-04-27T04:24:20.168Z,10.94
2019-04-27T04:26:50.526Z,10.73
2019-04-27T04:29:20.476Z,10.66
2019-04-27T04:31:50.466Z,10.74
2019-04-27T04:34:20.252Z,10.80
2019-04-27T04:36:50.343Z,10.75
2019-04-27T04:39:20.054Z,10.74
2019-04-27T04:41:59.951Z,10.70
2019-04-27T04:44:30.277Z,10.67
2019-04-27T04:47:01.521Z,10.66
2019-04-27T04:49:31.010Z,10.70
2019-04-27T04:52:00.558Z,10.83
2019-04-27T04:54:30.247Z,11.11
2019-04-27T04:56:59.803Z,11.10
2019-04-27T04:59:29.368Z,11.23
2019-04-27T05:02:01.922Z,11.31
2019-04-27T05:04:30.152Z,11.38
2019-04-27T05:06:59.640Z,11.49
2019-04-27T05:09:29.671Z,11.70
2019-04-27T05:11:59.132Z,11.71
2019-04-27T05:14:29.015Z,11.83
2019-04-27T05:16:59.165Z,11.83
2019-04-27T05:19:29.790Z,12.01
2019-04-27T05:21:59.406Z,11.98
2019-04-27T05:24:29.339Z,12.05
2019-04-27T05:26:59.164Z,12.17
2019-04-27T05:29:29.295Z,12.25
2019-04-27T05:31:59.314Z,12.37
2019-04-27T05:34:29.459Z,12.37
2019-04-27T05:37:01.060Z,12.55
2019-04-27T05:39:30.342Z,12.60
2019-04-27T05:41:59.973Z,12.57
2019-04-27T05:44:51.895Z,12.60
2019-04-27T05:47:23.016Z,12.37
2019-04-27T05:49:54.163Z,12.09
2019-04-27T05:52:29.957Z,11.92
2019-04-27T05:54:59.885Z,11.51
2019-04-27T05:57:31.428Z,11.46
2019-04-27T06:00:02.143Z,11.44
2019-04-27T06:02:32.101Z,11.43
2019-04-27T06:05:01.615Z,11.26
2019-04-27T06:07:31.104Z,11.35
2019-04-27T06:10:00.903Z,11.23
2019-04-27T06:12:30.647Z,11.30
2019-04-27T06:15:00.262Z,11.00
2019-04-27T06:17:30.219Z,11.04
2019-04-27T06:19:59.917Z,11.06
2019-04-27T06:22:29.605Z,10.95
2019-04-27T06:25:00.224Z,11.10
2019-04-27T06:27:30.766Z,11.22
2019-04-27T06:30:00.640Z,11.22
2019-04-27T06:32:30.217Z,11.34
2019-04-27T06:34:59.855Z,11.26
2019-04-27T06:37:29.648Z,11.56
2019-04-27T06:39:59.871Z,11.51
2019-04-27T06:42:29.887Z,11.44
2019-04-27T06:45:00.016Z,11.75
2019-04-27T06:47:29.924Z,11.56
2019-04-27T06:49:59.394Z,11.55
2019-04-27T06:52:29.381Z,11.57
2019-04-27T06:55:00.661Z,11.45
2019-04-27T06:57:31.114Z,11.49
2019-04-27T07:00:00.765Z,11.75
2019-04-27T07:02:30.251Z,11.95
2019-04-27T07:04:59.822Z,12.21
2019-04-27T07:07:29.634Z,12.35
2019-04-27T07:09:59.368Z,12.39
2019-04-27T07:12:29.045Z,12.40
2019-04-27T07:14:59.252Z,12.55
2019-04-27T07:17:29.205Z,12.51
2019-04-27T07:19:59.413Z,12.23
2019-04-27T07:22:29.882Z,12.02
2019-04-27T07:24:59.495Z,11.95
2019-04-27T07:27:29.286Z,11.77
2019-04-27T07:30:01.396Z,11.87
2019-04-27T07:32:30.191Z,11.83
2019-04-27T07:34:59.737Z,11.82
2019-04-27T07:37:29.526Z,11.71
2019-04-27T07:39:59.309Z,11.81
2019-04-27T07:42:31.501Z,11.60
2019-04-27T07:45:17.308Z,11.73
2019-04-27T07:47:49.335Z,11.77
2019-04-27T07:50:19.408Z,11.84
2019-04-27T07:52:48.937Z,12.04
2019-04-27T07:55:18.781Z,11.94
2019-04-27T07:57:49.480Z,11.86
2019-04-27T08:00:19.550Z,11.85
2019-04-27T08:02:49.129Z,11.91
2019-04-27T08:05:19.248Z,11.73
2019-04-27T08:07:49.214Z,11.75
2019-04-27T08:10:19.379Z,11.75
2019-04-27T08:12:49.798Z,11.76
2019-04-27T08:15:19.406Z,11.75
2019-04-27T08:17:49.352Z,11.73
2019-04-27T08:20:21.025Z,11.83
2019-04-27T08:22:50.229Z,11.76
2019-04-27T08:25:19.832Z,11.82
2019-04-27T08:27:51.068Z,11.82
2019-04-27T08:30:24.708Z,11.88
2019-04-27T08:32:55.833Z,12.00
2019-04-27T08:35:25.327Z,12.11
2019-04-27T08:37:54.845Z,12.42
2019-04-27T08:40:24.408Z,12.38
2019-04-27T08:42:55.733Z,12.31
2019-04-27T08:45:25.153Z,12.35
2019-04-27T08:47:54.651Z,12.48
2019-04-27T08:50:24.379Z,12.62
2019-04-27T08:52:53.962Z,12.47
2019-04-27T08:55:23.524Z,12.60
2019-04-27T08:57:53.090Z,12.60
2019-04-27T09:00:23.216Z,12.52
2019-04-27T09:02:52.767Z,12.70
2019-04-27T09:05:26.108Z,12.83
2019-04-27T09:08:14.276Z,12.89
2019-04-27T09:10:45.470Z,13.04
2019-04-27T09:13:16.634Z,13.00
2019-04-27T09:16:00.081Z,13.08
2019-04-27T09:18:32.595Z,13.18
2019-04-27T09:21:04.004Z,13.06
2019-04-27T09:23:33.591Z,13.00
2019-04-27T09:26:03.156Z,12.74
2019-04-27T09:28:32.671Z,12.70
2019-04-27T09:31:02.248Z,12.74
2019-04-27T09:33:31.766Z,12.63
2019-04-27T09:36:01.272Z,12.58
2019-04-27T09:38:30.837Z,12.76
2019-04-27T09:41:01.267Z,12.94
2019-04-27T09:43:30.776Z,11.51
2019-04-27T09:46:00.281Z,11.13
2019-04-27T09:48:29.792Z,10.68
2019-04-27T09:50:59.346Z,10.35
2019-04-27T09:53:28.863Z,10.05
2019-04-27T09:55:58.389Z,9.81
2019-04-27T09:58:27.872Z,9.84
2019-04-27T10:00:57.458Z,9.79
2019-04-27T10:03:26.985Z,9.68
2019-04-27T10:05:57.075Z,9.96
2019-04-27T10:08:26.658Z,10.21
2019-04-27T10:10:56.675Z,11.05
2019-04-27T10:13:27.621Z,11.76
2019-04-27T10:15:57.254Z,12.25
2019-04-27T10:18:26.757Z,12.96
2019-04-27T10:21:01.757Z,12.62
2019-04-27T10:23:27.579Z,12.33
2019-04-27T10:25:57.438Z,12.39
2019-04-27T10:28:27.011Z,12.27
2019-04-27T10:30:56.928Z,12.66
2019-04-27T10:33:27.752Z,12.67
2019-04-27T10:35:57.259Z,12.28
2019-04-27T10:38:26.885Z,12.75
2019-04-27T10:40:56.650Z,12.92
2019-04-27T10:43:26.244Z,13.08
2019-04-27T10:45:56.515Z,13.12
2019-04-27T10:48:26.632Z,13.05
2019-04-27T10:50:56.208Z,13.20
2019-04-27T10:53:26.866Z,13.03
2019-04-27T10:55:56.697Z,12.85
2019-04-27T10:58:27.310Z,12.40
2019-04-27T11:00:58.807Z,12.16
2019-04-27T11:03:46.190Z,11.97
2019-04-27T11:06:17.796Z,12.09
2019-04-27T11:08:48.364Z,12.08
2019-04-27T11:11:17.995Z,11.45
2019-04-27T11:13:47.479Z,11.60
2019-04-27T11:16:17.031Z,11.55
2019-04-27T11:18:47.112Z,11.32
2019-04-27T11:21:16.714Z,11.44
2019-04-27T11:23:46.228Z,11.16
2019-04-27T11:26:16.028Z,10.71
2019-04-27T11:28:46.305Z,10.70
2019-04-27T11:31:17.254Z,10.53
2019-04-27T11:33:46.938Z,10.73
2019-04-27T11:36:19.359Z,10.77
2019-04-27T11:38:56.582Z,10.71
2019-04-27T11:41:26.408Z,10.67
2019-04-27T11:43:56.596Z,10.63
2019-04-27T11:46:26.682Z,10.69
2019-04-27T11:48:58.288Z,10.67
2019-04-27T11:51:27.576Z,11.41
2019-04-27T11:53:57.076Z,11.71
2019-04-27T11:56:27.409Z,11.61
2019-04-27T11:58:56.969Z,11.46
2019-04-27T12:01:27.078Z,11.92
2019-04-27T12:03:56.689Z,11.39
2019-04-27T12:06:26.233Z,11.51
2019-04-27T12:08:55.735Z,11.66
2019-04-27T12:11:26.121Z,11.74
2019-04-27T12:13:56.127Z,11.94
2019-04-27T12:16:26.194Z,11.53
2019-04-27T12:18:56.374Z,11.64
2019-04-27T12:21:26.100Z,11.22
2019-04-27T12:23:55.620Z,11.19
2019-04-27T12:26:32.556Z,11.32
2019-04-27T12:29:03.814Z,12.11
2019-04-27T12:31:37.503Z,12.50
2019-04-27T12:34:07.042Z,12.76
2019-04-27T12:36:36.629Z,12.56
2019-04-27T12:39:12.404Z,12.14
2019-04-27T12:41:42.220Z,12.37
2019-04-27T12:44:12.149Z,12.71
2019-04-27T12:46:41.707Z,12.07
2019-04-27T12:49:11.636Z,12.66
2019-04-27T12:51:41.203Z,13.17
2019-04-27T12:54:16.203Z,14.11
2019-04-27T12:56:50.459Z,14.94
2019-04-27T12:59:33.369Z,15.49
2019-04-27T13:02:02.950Z,16.47
2019-04-27T13:04:32.440Z,15.36
2019-04-27T13:07:02.017Z,15.25
2019-04-27T13:09:31.600Z,16.43
2019-04-27T13:12:01.081Z,16.47
2019-04-27T13:14:30.681Z,17.50
2019-04-27T13:17:00.191Z,18.06
2019-04-27T13:19:29.782Z,18.04
2019-04-27T13:21:59.340Z,17.93
2019-04-27T13:24:28.976Z,17.27
2019-04-27T13:26:58.566Z,17.56
2019-04-27T13:29:28.091Z,17.50
2019-04-27T13:31:57.774Z,18.04
2019-04-27T13:34:27.304Z,18.32
2019-04-27T13:36:58.579Z,17.38
2019-04-27T13:39:28.151Z,18.25
2019-04-27T13:41:58.144Z,18.33
2019-04-27T13:44:27.662Z,17.36
2019-04-27T13:47:13.930Z,17.46
2019-04-27T13:50:00.737Z,16.85
2019-04-27T13:52:30.227Z,16.72
2019-04-27T13:54:59.813Z,17.39
2019-04-27T13:57:29.322Z,17.64
2019-04-27T13:59:58.815Z,17.75
2019-04-27T14:02:32.552Z,17.17
2019-04-27T14:05:02.268Z,16.55
2019-04-27T14:07:31.846Z,15.78
2019-04-27T14:10:02.913Z,14.92
2019-04-27T14:12:32.416Z,14.60
2019-04-27T14:15:01.975Z,13.42
2019-04-27T14:17:31.492Z,11.70
2019-04-27T14:20:00.979Z,10.66
2019-04-27T14:22:31.624Z,10.69
2019-04-27T14:25:04.100Z,10.75
2019-04-27T14:27:36.758Z,11.21
2019-04-27T14:30:11.970Z,12.17
2019-04-27T14:32:42.411Z,12.86
2019-04-27T14:35:12.224Z,13.38
2019-04-27T14:37:41.725Z,13.65
2019-04-27T14:40:11.723Z,14.26
2019-04-27T14:42:41.226Z,14.53
2019-04-27T14:45:11.017Z,15.09
2019-04-27T14:47:40.514Z,16.35
2019-04-27T14:50:10.151Z,15.73
2019-04-27T14:52:40.935Z,17.03
2019-04-27T14:55:10.725Z,17.08
2019-04-27T14:57:40.306Z,18.06
2019-04-27T15:00:11.926Z,17.83
2019-04-27T15:02:41.547Z,18.14
2019-04-27T15:05:11.239Z,17.67
2019-04-27T15:07:40.713Z,17.83
2019-04-27T15:10:10.545Z,18.28
2019-04-27T15:12:40.174Z,17.66
2019-04-27T15:15:10.084Z,16.15
2019-04-27T15:17:40.243Z,16.25
2019-04-27T15:20:14.523Z,16.02
2019-04-27T15:22:45.886Z,16.74
2019-04-27T15:25:15.801Z,16.84
2019-04-27T15:27:47.205Z,16.00
2019-04-27T15:30:18.759Z,17.10
2019-04-27T15:32:52.928Z,17.74
2019-04-27T15:35:28.510Z,17.20
2019-04-27T15:38:05.030Z,15.19
2019-04-27T15:40:43.799Z,15.05
2019-04-27T15:43:12.316Z,15.03
2019-04-27T15:45:41.919Z,15.03
2019-04-27T15:48:11.478Z,15.46
2019-04-27T15:50:40.996Z,16.86
2019-04-27T15:53:12.643Z,17.08
2019-04-27T15:55:41.719Z,17.24
2019-04-27T15:58:11.410Z,17.27
2019-04-27T16:00:40.895Z,17.50
2019-04-27T16:03:10.426Z,17.90
2019-04-27T16:05:39.989Z,16.74
2019-04-27T16:08:15.297Z,15.85
2019-04-27T16:10:40.786Z,14.95
2019-04-27T16:13:14.952Z,14.32
2019-04-27T16:15:41.766Z,14.21
2019-04-27T16:18:11.332Z,14.07
2019-04-27T16:20:40.852Z,13.79
2019-04-27T16:23:10.420Z,13.88
2019-04-27T16:25:48.551Z,14.00
2019-04-27T16:28:13.339Z,13.85
2019-04-27T16:30:45.716Z,13.43
2019-04-27T16:33:15.473Z,13.27
2019-04-27T16:35:46.148Z,13.10
2019-04-27T16:38:26.621Z,12.94
2019-04-27T16:40:59.746Z,12.80
2019-04-27T16:43:32.628Z,12.68
2019-04-27T16:46:04.401Z,12.48
2019-04-27T16:48:34.526Z,12.39
2019-04-27T16:51:02.696Z,12.42
2019-04-27T16:53:38.180Z,12.51
2019-04-27T16:56:11.366Z,12.40
2019-04-27T16:58:39.399Z,12.28
2019-04-27T17:01:18.402Z,12.20
2019-04-27T17:03:48.535Z,12.07
2019-04-27T17:06:21.099Z,11.80
2019-04-27T17:08:49.792Z,11.89
2019-04-27T17:11:19.766Z,12.18
2019-04-27T17:13:58.873Z,12.18
2019-04-27T17:16:40.427Z,12.06
2019-04-27T17:19:20.800Z,12.01
2019-04-27T17:21:50.388Z,11.96
2019-04-27T17:24:41.522Z,11.85
2019-04-27T17:27:05.879Z,11.47
2019-04-27T17:29:38.640Z,11.15
2019-04-27T17:32:10.172Z,11.50
2019-04-27T17:34:39.828Z,11.65
2019-04-27T17:37:09.407Z,11.63
2019-04-27T17:39:38.896Z,11.78
2019-04-27T17:42:08.667Z,11.53
2019-04-27T17:44:39.320Z,11.54
2019-04-27T17:47:10.677Z,11.53
2019-04-27T17:49:40.316Z,11.30
2019-04-27T17:52:13.028Z,11.39
2019-04-27T17:54:47.337Z,11.63
2019-04-27T17:57:13.676Z,11.88
2019-04-27T17:59:43.365Z,11.97
2019-04-27T18:02:13.009Z,11.83
2019-04-27T18:04:42.564Z,11.60
2019-04-27T18:07:12.080Z,11.69
2019-04-27T18:09:43.611Z,11.41
2019-04-27T18:12:14.576Z,11.53
2019-04-27T18:14:44.111Z,11.56
2019-04-27T18:17:13.712Z,11.51
2019-04-27T18:19:50.610Z,11.36
2019-04-27T18:22:20.204Z,11.28
2019-04-27T18:25:06.248Z,11.29
2019-04-27T18:27:33.572Z,11.63
2019-04-27T18:30:10.952Z,11.82
2019-04-27T18:32:40.538Z,11.71
2019-04-27T18:35:10.343Z,11.68
2019-04-27T18:37:39.919Z,11.31
2019-04-27T18:40:09.565Z,11.02
2019-04-27T18:42:39.217Z,10.78
2019-04-27T18:45:08.960Z,10.65
2019-04-27T18:47:40.560Z,10.77
2019-04-27T18:50:14.740Z,10.56
2019-04-27T18:52:47.673Z,10.24
2019-04-27T18:55:18.550Z,10.48
2019-04-27T18:57:50.939Z,10.56
2019-04-27T19:00:20.858Z,10.44
2019-04-27T19:02:50.541Z,10.28
2019-04-27T19:05:20.147Z,10.24
2019-04-27T19:07:49.768Z,10.16
2019-04-27T19:10:19.523Z,10.09
2019-04-27T19:12:49.143Z,10.01
2019-04-27T19:15:19.108Z,10.35
2019-04-27T19:17:49.057Z,10.25
2019-04-27T19:20:18.889Z,10.10
2019-04-27T19:22:49.198Z,9.98
2019-04-27T19:25:20.458Z,9.96
2019-04-27T19:28:09.450Z,9.98
2019-04-27T19:30:43.639Z,9.87
2019-04-27T19:33:13.216Z,9.83
2019-04-27T19:35:42.744Z,9.77
2019-04-27T19:38:12.254Z,9.69
2019-04-27T19:40:41.850Z,9.76
2019-04-27T19:43:11.457Z,9.91
2019-04-27T19:45:40.988Z,9.98
2019-04-27T19:48:10.681Z,9.97
2019-04-27T19:50:40.140Z,10.03
2019-04-27T19:53:09.746Z,10.08
2019-04-27T19:55:40.596Z,10.08
2019-04-27T19:58:10.402Z,10.06
2019-04-27T20:00:39.871Z,10.09
2019-04-27T20:03:11.185Z,10.08
2019-04-27T20:05:40.666Z,10.07
2019-04-27T20:08:11.944Z,10.09
2019-04-27T20:10:43.247Z,10.21
2019-04-27T20:13:12.837Z,10.06
2019-04-27T20:15:42.985Z,10.20
2019-04-27T20:18:12.517Z,10.06
2019-04-27T20:20:42.161Z,10.09
2019-04-27T20:23:11.803Z,10.04
2019-04-27T20:25:41.333Z,10.01
2019-04-27T20:28:12.077Z,10.01
2019-04-27T20:30:41.727Z,9.85
2019-04-27T20:33:11.206Z,10.10
2019-04-27T20:35:42.549Z,9.97
2019-04-27T20:38:12.904Z,10.03
2019-04-27T20:40:42.506Z,10.14
2019-04-27T20:43:11.991Z,10.05
2019-04-27T20:45:41.668Z,10.04
2019-04-27T20:48:11.289Z,9.98
2019-04-27T20:50:41.279Z,9.97
2019-04-27T20:53:15.461Z,10.08
2019-04-27T20:55:44.965Z,10.13
2019-04-27T20:58:14.480Z,10.08
2019-04-27T21:00:43.979Z,10.04
2019-04-27T21:03:15.258Z,10.00
2019-04-27T21:05:51.138Z,10.00
2019-04-27T21:08:27.902Z,9.87
2019-04-27T21:10:57.491Z,10.05
2019-04-27T21:13:27.039Z,9.99
2019-04-27T21:15:56.670Z,9.90
2019-04-27T21:18:26.297Z,9.93
2019-04-27T21:20:55.886Z,9.98
2019-04-27T21:23:25.464Z,10.00
2019-04-27T21:25:55.090Z,9.78
2019-04-27T21:28:24.605Z,9.85
2019-04-27T21:30:54.241Z,9.96
2019-04-27T21:33:23.758Z,9.97
2019-04-27T21:35:53.419Z,10.07
2019-04-27T21:38:22.904Z,9.98
2019-04-27T21:40:52.510Z,10.01
2019-04-27T21:43:22.181Z,9.95
2019-04-27T21:45:51.767Z,9.92
2019-04-27T21:48:21.394Z,9.77
2019-04-27T21:50:51.672Z,10.02
2019-04-27T21:53:22.981Z,9.82
2019-04-27T21:56:03.199Z,9.98
2019-04-27T21:58:33.292Z,9.84
2019-04-27T22:01:11.484Z,9.86
2019-04-27T22:03:42.233Z,9.97
2019-04-27T22:06:12.338Z,9.96
2019-04-27T22:08:41.980Z,9.85
2019-04-27T22:11:11.795Z,9.81
2019-04-27T22:13:41.489Z,9.84
2019-04-27T22:16:12.947Z,9.79
2019-04-27T22:18:42.232Z,9.93
2019-04-27T22:21:11.954Z,9.89
2019-04-27T22:23:55.155Z,9.95
2019-04-27T22:26:24.763Z,10.01
2019-04-27T22:28:54.362Z,9.97
2019-04-27T22:31:23.989Z,9.85
2019-04-27T22:33:54.605Z,9.84
2019-04-27T22:36:24.376Z,9.80
2019-04-27T22:38:55.557Z,9.99
2019-04-27T22:41:32.637Z,10.06
2019-04-27T22:44:01.907Z,9.85
2019-04-27T22:46:33.113Z,9.78
2019-04-27T22:49:02.708Z,9.61
2019-04-27T22:51:32.254Z,9.66
2019-04-27T22:54:01.806Z,9.54
2019-04-27T22:56:32.102Z,9.82
2019-04-27T22:59:21.354Z,9.68
2019-04-27T23:01:51.203Z,9.79
2019-04-27T23:04:25.197Z,9.75
2019-04-27T23:06:54.805Z,9.71
2019-04-27T23:09:24.395Z,9.75
2019-04-27T23:11:53.865Z,9.71
2019-04-27T23:14:23.388Z,9.72
2019-04-27T23:16:54.575Z,9.82
2019-04-27T23:19:24.069Z,9.64
2019-04-27T23:21:53.567Z,9.73
2019-04-27T23:24:23.131Z,9.74
2019-04-27T23:26:52.739Z,9.79
2019-04-27T23:29:22.206Z,9.89
2019-04-27T23:32:04.947Z,9.92
2019-04-27T23:34:34.515Z,9.84
2019-04-27T23:37:04.062Z,9.87
2019-04-27T23:39:33.665Z,9.98
2019-04-27T23:42:06.801Z,9.86
2019-04-27T23:44:34.497Z,9.83
2019-04-27T23:47:03.991Z,9.88
2019-04-27T23:49:33.509Z,9.94
2019-04-27T23:52:04.823Z,9.88
2019-04-27T23:54:34.382Z,9.88
2019-04-27T23:57:03.961Z,9.80
2019-04-27T23:59:33.473Z,9.78
